Time;durP1;ratioP1;P1;durP2;ratioP2;P2;SDS_P1;SDS_P2;PMS_P1;PMS_P2;Temp;Humidity;BMP_temperature;BMP_pressure;BME280_temperature;BME280_humidity;BME280_pressure;Samples;Min_cycle;Max_cycle;Signal;HPM_P1;HPM_P2
2023/07/09 00:01:17;;;;;;;0.00;0.00;;;23.30;64.60;;;;;;4993268;28;20506;-71
2023/07/09 00:03:43;;;;;;;0.00;0.00;;;23.20;64.80;;;;;;5011148;28;20053;-71
2023/07/09 00:06:09;;;;;;;0.00;0.00;;;23.20;64.80;;;;;;5011693;28;20076;-71
2023/07/09 00:08:35;;;;;;;0.00;0.00;;;23.10;65.50;;;;;;5011298;28;20049;-71
2023/07/09 00:11:00;;;;;;;0.00;0.00;;;23.10;65.80;;;;;;5011075;28;20049;-71
2023/07/09 00:13:27;;;;;;;0.00;0.00;;;23.00;66.00;;;;;;5011100;28;20572;-71
2023/07/09 00:15:57;;;;;;;0.00;0.00;;;23.00;65.30;;;;;;5010694;28;20037;-71
2023/07/09 00:18:22;;;;;;;0.00;0.00;;;23.00;65.70;;;;;;5010964;28;20049;-71
2023/07/09 00:20:48;;;;;;;0.10;0.10;;;23.00;65.40;;;;;;5010523;28;20033;-71
2023/07/09 00:23:14;;;;;;;0.00;0.00;;;22.90;65.20;;;;;;5011209;28;20430;-71
2023/07/09 00:25:43;;;;;;;0.00;0.00;;;22.90;65.20;;;;;;5011147;28;20042;-71
2023/07/09 00:28:14;;;;;;;0.00;0.00;;;22.90;65.90;;;;;;5010340;28;20084;-71
2023/07/09 00:30:40;;;;;;;0.00;0.00;;;22.80;65.40;;;;;;5005341;28;20395;-71
2023/07/09 00:33:09;;;;;;;0.20;0.20;;;22.80;65.80;;;;;;5010915;28;20296;-71
2023/07/09 00:35:35;;;;;;;0.00;0.00;;;22.70;65.60;;;;;;5009530;28;20041;-71
2023/07/09 00:38:00;;;;;;;0.00;0.00;;;22.70;65.40;;;;;;5010752;28;20045;-71
2023/07/09 00:40:26;;;;;;;0.00;0.00;;;22.70;65.80;;;;;;5010507;28;20141;-71
2023/07/09 00:42:53;;;;;;;0.00;0.00;;;22.60;65.60;;;;;;5009809;28;20038;-71
2023/07/09 00:45:25;;;;;;;0.00;0.00;;;22.70;65.80;;;;;;5009358;28;20045;-71
2023/07/09 00:48:06;;;;;;;0.00;0.00;;;22.60;65.80;;;;;;5011622;28;20054;-71
2023/07/09 00:50:53;;;;;;;;;;;22.60;65.80;;;;;;5011020;28;20145;-71
2023/07/09 00:53:29;;;;;;;0.00;0.00;;;22.60;66.20;;;;;;5008805;28;19921;-71
2023/07/09 00:56:09;;;;;;;0.00;0.00;;;22.50;66.10;;;;;;5011296;28;20038;-71
2023/07/09 00:58:37;;;;;;;0.00;0.00;;;22.50;65.70;;;;;;5011313;28;20133;-71
2023/07/09 01:01:09;;;;;;;0.30;0.20;;;22.50;66.80;;;;;;5010704;28;20049;-71
2023/07/09 01:03:41;;;;;;;0.00;0.00;;;22.50;66.50;;;;;;5010973;28;20046;-71
2023/07/09 01:06:07;;;;;;;0.00;0.00;;;22.50;66.70;;;;;;5010906;28;20502;-71
2023/07/09 01:08:34;;;;;;;0.00;0.00;;;22.40;66.50;;;;;;5010935;28;20113;-71
2023/07/09 01:11:00;;;;;;;0.00;0.00;;;22.40;65.80;;;;;;4992430;28;20049;-71
2023/07/09 01:13:32;;;;;;;0.00;0.00;;;22.30;65.80;;;;;;5008491;28;20052;-71
2023/07/09 01:15:58;;;;;;;0.00;0.00;;;22.30;66.10;;;;;;5011040;28;20417;-71
2023/07/09 01:18:24;;;;;;;0.00;0.00;;;22.30;66.40;;;;;;5011159;28;20056;-71
2023/07/09 01:20:52;;;;;;;0.00;0.00;;;22.30;65.80;;;;;;5011631;28;20129;-71
2023/07/09 01:23:18;;;;;;;0.00;0.00;;;22.30;66.10;;;;;;5010820;28;20445;-71
2023/07/09 01:25:52;;;;;;;0.00;0.00;;;22.30;66.00;;;;;;5011204;28;20049;-71
2023/07/09 01:28:18;;;;;;;0.08;0.08;;;22.20;65.90;;;;;;5009587;28;20038;-71
2023/07/09 01:30:44;;;;;;;0.00;0.00;;;22.20;66.20;;;;;;5010742;28;20045;-71
2023/07/09 01:33:10;;;;;;;0.00;0.00;;;22.20;66.30;;;;;;5010289;28;20108;-71
2023/07/09 01:35:40;;;;;;;0.00;0.00;;;22.20;66.60;;;;;;5010810;28;20521;-71
2023/07/09 01:38:07;;;;;;;0.00;0.00;;;22.20;66.80;;;;;;5010341;28;20449;-71
2023/07/09 01:40:33;;;;;;;0.10;0.10;;;22.10;66.80;;;;;;5010751;28;20080;-71
2023/07/09 01:43:01;;;;;;;0.00;0.00;;;22.10;66.70;;;;;;5010482;28;20433;-71
2023/07/09 01:45:27;;;;;;;0.00;0.00;;;22.10;66.90;;;;;;4992772;28;20104;-71
2023/07/09 01:47:55;;;;;;;0.00;0.00;;;22.00;67.50;;;;;;5009388;28;20383;-71
2023/07/09 01:50:21;;;;;;;0.00;0.00;;;22.00;67.30;;;;;;5010352;28;20129;-71
2023/07/09 01:52:49;;;;;;;0.00;0.00;;;21.90;67.10;;;;;;5010637;28;20112;-71
2023/07/09 01:55:16;;;;;;;0.00;0.00;;;22.00;67.50;;;;;;5010152;28;20133;-71
2023/07/09 01:57:42;;;;;;;0.00;0.00;;;21.90;67.90;;;;;;5010449;28;20050;-71
2023/07/09 02:00:13;;;;;;;0.00;0.00;;;21.80;68.10;;;;;;5009991;28;20049;-71
2023/07/09 02:02:42;;;;;;;0.00;0.00;;;21.80;67.80;;;;;;5010093;28;20046;-71
2023/07/09 02:05:09;;;;;;;0.00;0.00;;;21.80;67.90;;;;;;5010323;28;20058;-71
2023/07/09 02:07:35;;;;;;;0.00;0.00;;;21.70;67.70;;;;;;5009425;28;20439;-71
2023/07/09 02:10:00;;;;;;;0.00;0.00;;;21.70;67.60;;;;;;5009981;28;20072;-71
2023/07/09 02:12:26;;;;;;;0.00;0.00;;;21.70;67.60;;;;;;5008088;28;20041;-71
2023/07/09 02:14:52;;;;;;;0.00;0.00;;;21.70;67.80;;;;;;5009067;28;20087;-71
2023/07/09 02:17:18;;;;;;;0.00;0.00;;;21.60;67.90;;;;;;5010365;28;20611;-71
2023/07/09 02:19:43;;;;;;;0.00;0.00;;;21.60;68.20;;;;;;5009461;28;20046;-71
2023/07/09 02:22:10;;;;;;;0.00;0.00;;;21.60;68.50;;;;;;5010248;28;20112;-71
2023/07/09 02:24:36;;;;;;;0.00;0.00;;;21.60;68.60;;;;;;4991873;28;20061;-71
2023/07/09 02:27:05;;;;;;;0.00;0.00;;;21.60;68.30;;;;;;5008391;28;20038;-71
2023/07/09 02:29:31;;;;;;;0.00;0.00;;;21.60;68.80;;;;;;5007801;28;20565;-71
2023/07/09 02:31:58;;;;;;;0.00;0.00;;;21.50;68.50;;;;;;5007424;28;20033;-71
2023/07/09 02:34:25;;;;;;;0.00;0.00;;;21.50;68.40;;;;;;5007945;28;20132;-71
2023/07/09 02:36:53;;;;;;;0.00;0.00;;;21.50;68.60;;;;;;5008371;28;20057;-71
2023/07/09 02:39:19;;;;;;;0.00;0.00;;;21.50;68.60;;;;;;4989298;28;20181;-71
2023/07/09 02:41:45;;;;;;;0.00;0.00;;;21.50;68.60;;;;;;4988922;28;20054;-71
2023/07/09 02:44:10;;;;;;;0.00;0.00;;;21.50;68.80;;;;;;5002925;28;20053;-71
2023/07/09 02:46:36;;;;;;;0.00;0.00;;;21.40;68.70;;;;;;5007857;28;20045;-71
2023/07/09 02:49:04;;;;;;;0.00;0.00;;;21.40;68.80;;;;;;5008704;28;20507;-71
2023/07/09 02:51:30;;;;;;;0.00;0.00;;;21.40;68.80;;;;;;5008319;28;20058;-71
2023/07/09 02:53:57;;;;;;;0.00;0.00;;;21.30;68.80;;;;;;5009098;28;20050;-71
2023/07/09 02:56:23;;;;;;;0.13;0.08;;;21.30;69.20;;;;;;5008137;28;20399;-71
2023/07/09 02:58:50;;;;;;;0.03;0.03;;;21.30;69.10;;;;;;5011303;28;20054;-71
2023/07/09 03:01:15;;;;;;;0.00;0.00;;;21.20;69.10;;;;;;4995053;28;20522;-71
2023/07/09 03:03:41;;;;;;;0.00;0.00;;;21.20;69.40;;;;;;5012389;28;20037;-71
2023/07/09 03:06:07;;;;;;;0.00;0.00;;;21.10;69.60;;;;;;5010483;28;20050;-71
2023/07/09 03:08:32;;;;;;;0.00;0.00;;;21.10;69.30;;;;;;5011931;28;20049;-71
2023/07/09 03:10:58;;;;;;;0.00;0.00;;;21.10;69.20;;;;;;4994995;28;20050;-71
2023/07/09 03:13:24;;;;;;;0.00;0.00;;;21.10;69.40;;;;;;5012518;28;20053;-71
2023/07/09 03:15:57;;;;;;;0.00;0.00;;;21.10;69.30;;;;;;5012626;28;20060;-71
2023/07/09 03:18:23;;;;;;;0.00;0.00;;;21.10;69.40;;;;;;5012656;28;20049;-71
2023/07/09 03:20:49;;;;;;;0.00;0.00;;;21.10;69.30;;;;;;5011289;28;20139;-71
2023/07/09 03:23:15;;;;;;;0.00;0.00;;;21.10;69.30;;;;;;5012007;28;20041;-71
2023/07/09 03:25:42;;;;;;;0.20;0.20;;;21.10;69.40;;;;;;5011312;28;20137;-71
2023/07/09 03:28:07;;;;;;;0.08;0.08;;;21.00;69.20;;;;;;5011991;28;20065;-71
2023/07/09 03:30:33;;;;;;;0.00;0.00;;;21.00;69.30;;;;;;5010629;28;20617;-71
2023/07/09 03:33:00;;;;;;;0.00;0.00;;;21.00;69.40;;;;;;4994557;28;20470;-71
2023/07/09 03:35:25;;;;;;;0.00;0.00;;;21.00;69.30;;;;;;4978301;28;20042;-71
2023/07/09 03:37:51;;;;;;;0.00;0.00;;;21.00;69.60;;;;;;5010820;28;20057;-71
2023/07/09 03:40:22;;;;;;;0.00;0.00;;;21.00;69.30;;;;;;4993250;28;20046;-72
2023/07/09 03:42:47;;;;;;;0.00;0.00;;;21.00;69.80;;;;;;5010727;28;20553;-71
2023/07/09 03:45:13;;;;;;;0.00;0.00;;;21.00;69.70;;;;;;5011092;28;20307;-71
2023/07/09 03:47:38;;;;;;;0.00;0.00;;;21.00;69.50;;;;;;5011375;28;20052;-71
2023/07/09 03:50:08;;;;;;;0.00;0.00;;;21.00;69.90;;;;;;5011816;28;20061;-71
2023/07/09 03:52:34;;;;;;;0.00;0.00;;;21.00;69.70;;;;;;4994018;28;20105;-71
2023/07/09 03:55:01;;;;;;;0.00;0.00;;;21.10;69.50;;;;;;5012008;28;20046;-72
2023/07/09 03:57:27;;;;;;;0.45;0.45;;;21.00;69.70;;;;;;5011185;28;20050;-71
2023/07/09 03:59:52;;;;;;;0.00;0.00;;;21.10;69.70;;;;;;5010072;28;20054;-71
2023/07/09 04:02:18;;;;;;;0.00;0.00;;;21.00;70.10;;;;;;4994260;28;20054;-71
2023/07/09 04:04:44;;;;;;;0.00;0.00;;;21.10;69.80;;;;;;5011168;28;20040;-71
2023/07/09 04:07:09;;;;;;;0.00;0.00;;;21.10;70.00;;;;;;5011605;28;20481;-71
2023/07/09 04:09:35;;;;;;;0.00;0.00;;;21.10;70.40;;;;;;5010468;28;20585;-71
2023/07/09 04:12:01;;;;;;;0.00;0.00;;;21.10;70.20;;;;;;5011521;28;20426;-71
2023/07/09 04:14:27;;;;;;;0.00;0.00;;;21.10;70.10;;;;;;4992794;28;20120;-71
2023/07/09 04:16:53;;;;;;;0.00;0.00;;;21.10;70.00;;;;;;5005431;28;20474;-71
2023/07/09 04:19:18;;;;;;;0.00;0.00;;;21.10;70.50;;;;;;5009321;28;20077;-71
2023/07/09 04:21:44;;;;;;;0.00;0.00;;;21.10;70.30;;;;;;5011141;28;20053;-71
2023/07/09 04:24:09;;;;;;;0.00;0.00;;;21.10;70.50;;;;;;5010515;28;20072;-71
2023/07/09 04:26:35;;;;;;;0.00;0.00;;;21.10;70.50;;;;;;5011002;28;20054;-71
2023/07/09 04:29:01;;;;;;;0.00;0.00;;;21.10;70.90;;;;;;5011295;28;20081;-71
2023/07/09 04:31:26;;;;;;;0.00;0.00;;;21.20;70.60;;;;;;5011100;28;20042;-71
2023/07/09 04:33:55;;;;;;;0.00;0.00;;;21.20;71.20;;;;;;5010875;28;20053;-71
2023/07/09 04:36:20;;;;;;;0.00;0.00;;;21.20;71.40;;;;;;5011012;28;20475;-71
2023/07/09 04:38:46;;;;;;;0.00;0.00;;;21.20;71.20;;;;;;5010716;28;20077;-72
2023/07/09 04:41:11;;;;;;;0.00;0.00;;;21.30;71.20;;;;;;5010966;28;20042;-71
2023/07/09 04:43:37;;;;;;;0.00;0.00;;;21.30;71.30;;;;;;5010900;28;20081;-75
2023/07/09 04:46:02;;;;;;;0.00;0.00;;;21.30;71.00;;;;;;5010396;28;20049;-74
2023/07/09 04:48:28;;;;;;;0.00;0.00;;;21.40;71.50;;;;;;5003969;28;20058;-70
2023/07/09 04:50:54;;;;;;;0.00;0.00;;;21.40;71.30;;;;;;4992446;28;20054;-70
2023/07/09 04:53:19;;;;;;;0.00;0.00;;;21.40;71.20;;;;;;5010787;28;20522;-71
2023/07/09 04:55:45;;;;;;;0.00;0.00;;;21.50;71.10;;;;;;5010992;28;20345;-71
2023/07/09 04:58:10;;;;;;;0.00;0.00;;;21.60;71.40;;;;;;5008515;28;20034;-71
2023/07/09 05:00:36;;;;;;;0.00;0.00;;;21.60;71.50;;;;;;5009082;28;20045;-71
2023/07/09 05:03:01;;;;;;;0.00;0.00;;;21.60;71.20;;;;;;5010601;28;20042;-71
2023/07/09 05:05:27;;;;;;;0.00;0.00;;;21.60;71.30;;;;;;5010186;28;20045;-71
2023/07/09 05:07:52;;;;;;;0.00;0.00;;;21.70;71.50;;;;;;5010209;28;20665;-71
2023/07/09 05:10:18;;;;;;;0.00;0.00;;;21.70;71.50;;;;;;5010516;28;20511;-71
2023/07/09 05:12:48;;;;;;;0.00;0.00;;;21.70;71.60;;;;;;5011157;28;20406;-71
2023/07/09 05:15:14;;;;;;;0.00;0.00;;;21.80;71.80;;;;;;5009328;28;20503;-71
2023/07/09 05:17:39;;;;;;;0.00;0.00;;;21.80;72.40;;;;;;4992974;28;20057;-71
2023/07/09 05:20:05;;;;;;;0.00;0.00;;;21.80;72.30;;;;;;5010225;28;20054;-71
2023/07/09 05:22:31;;;;;;;0.00;0.00;;;21.90;72.00;;;;;;5009893;28;20125;-71
2023/07/09 05:24:57;;;;;;;0.00;0.00;;;21.90;72.20;;;;;;5010082;28;20125;-71
2023/07/09 05:27:22;;;;;;;0.00;0.00;;;22.00;72.40;;;;;;4992597;28;20129;-71
2023/07/09 05:29:48;;;;;;;0.00;0.00;;;21.90;72.50;;;;;;5008578;28;20101;-71
2023/07/09 05:32:13;;;;;;;0.00;0.00;;;22.00;72.50;;;;;;5010071;28;20057;-71
2023/07/09 05:34:39;;;;;;;0.00;0.00;;;22.00;72.60;;;;;;5009248;28;20068;-70
2023/07/09 05:37:04;;;;;;;0.00;0.00;;;22.00;72.50;;;;;;5009849;28;20125;-70
2023/07/09 05:39:30;;;;;;;0.00;0.00;;;22.00;72.30;;;;;;5008146;28;20141;-70
2023/07/09 05:41:55;;;;;;;0.00;0.00;;;22.10;72.40;;;;;;4976155;28;20041;-70
2023/07/09 05:44:21;;;;;;;0.00;0.00;;;22.00;72.40;;;;;;5009324;28;20563;-70
2023/07/09 05:46:46;;;;;;;0.00;0.00;;;22.00;72.40;;;;;;5009504;28;20042;-70
2023/07/09 05:49:12;;;;;;;0.00;0.00;;;22.10;72.20;;;;;;5009313;28;20168;-70
2023/07/09 05:51:37;;;;;;;0.00;0.00;;;22.10;72.70;;;;;;5009265;28;20476;-70
2023/07/09 05:54:03;;;;;;;0.00;0.00;;;22.20;72.50;;;;;;5008810;28;20067;-70
2023/07/09 05:56:29;;;;;;;0.00;0.00;;;22.20;72.40;;;;;;5009339;28;20042;-70
2023/07/09 05:58:56;;;;;;;0.00;0.00;;;22.30;72.20;;;;;;5009396;28;20100;-71
2023/07/09 06:01:22;;;;;;;0.30;0.05;;;22.40;72.10;;;;;;5009499;28;20050;-71
2023/07/09 06:03:48;;;;;;;0.00;0.00;;;22.40;71.70;;;;;;5009327;28;20041;-71
2023/07/09 06:06:14;;;;;;;0.00;0.00;;;22.50;71.90;;;;;;5006155;28;20046;-71
2023/07/09 06:08:40;;;;;;;0.10;0.08;;;22.50;72.00;;;;;;5000392;28;20379;-71
2023/07/09 06:11:07;;;;;;;0.55;0.15;;;22.50;72.30;;;;;;4990140;28;20045;-71
2023/07/09 06:13:32;;;;;;;0.00;0.00;;;22.60;72.00;;;;;;5003509;28;20037;-71
2023/07/09 06:15:59;;;;;;;0.00;0.00;;;22.60;71.30;;;;;;4977866;28;20061;-72
2023/07/09 06:18:29;;;;;;;0.90;0.65;;;22.80;71.20;;;;;;5007991;28;20387;-72
2023/07/09 06:20:57;;;;;;;0.00;0.00;;;22.80;70.80;;;;;;5009355;28;20053;-72
2023/07/09 06:23:22;;;;;;;1.13;0.45;;;22.90;70.80;;;;;;4975454;28;20065;-72
2023/07/09 06:25:48;;;;;;;0.10;0.10;;;23.00;70.90;;;;;;5006089;28;20053;-73
2023/07/09 06:28:19;;;;;;;0.00;0.00;;;23.00;70.80;;;;;;4958573;28;20512;-73
2023/07/09 06:30:45;;;;;;;0.00;0.00;;;23.10;71.20;;;;;;5006635;28;20061;-72
2023/07/09 06:33:12;;;;;;;0.00;0.00;;;23.10;71.00;;;;;;5001659;28;20088;-72
2023/07/09 06:35:39;;;;;;;0.00;0.00;;;23.20;70.80;;;;;;5004667;28;20156;-72
2023/07/09 06:38:05;;;;;;;0.00;0.00;;;23.30;70.90;;;;;;5008661;28;20046;-72
2023/07/09 06:40:31;;;;;;;0.00;0.00;;;23.40;71.50;;;;;;5006002;28;20086;-72
2023/07/09 06:42:57;;;;;;;0.00;0.00;;;23.50;71.60;;;;;;4989094;28;20084;-71
2023/07/09 06:45:23;;;;;;;0.00;0.00;;;23.50;71.70;;;;;;5005277;28;21850;-72
2023/07/09 06:47:49;;;;;;;0.00;0.00;;;23.60;71.40;;;;;;5007915;28;20052;-72
2023/07/09 06:50:15;;;;;;;0.00;0.00;;;23.70;71.10;;;;;;5006511;28;20050;-73
2023/07/09 06:52:41;;;;;;;0.00;0.00;;;23.70;71.20;;;;;;5006399;28;20077;-73
2023/07/09 06:55:07;;;;;;;0.00;0.00;;;23.70;71.40;;;;;;4995905;28;20682;-73
2023/07/09 06:57:33;;;;;;;0.20;0.20;;;23.80;71.40;;;;;;4990080;28;20112;-71
2023/07/09 06:59:58;;;;;;;0.00;0.00;;;23.80;71.70;;;;;;5004408;28;20499;-74
2023/07/09 07:02:24;;;;;;;0.00;0.00;;;23.90;71.70;;;;;;5002620;28;20050;-73
2023/07/09 07:04:49;;;;;;;0.00;0.00;;;23.90;72.50;;;;;;5007240;28;20181;-73
2023/07/09 07:07:15;;;;;;;0.10;0.10;;;23.90;71.70;;;;;;5008035;28;20046;-73
2023/07/09 07:09:41;;;;;;;0.00;0.00;;;23.90;71.70;;;;;;4989792;28;20483;-73
2023/07/09 07:12:07;;;;;;;0.00;0.00;;;24.00;72.50;;;;;;5008563;28;20149;-73
2023/07/09 07:14:32;;;;;;;0.00;0.00;;;24.10;72.00;;;;;;5008748;28;20060;-73
2023/07/09 07:16:58;;;;;;;0.00;0.00;;;24.10;72.00;;;;;;5008329;28;20164;-72
2023/07/09 07:19:23;;;;;;;0.00;0.00;;;24.20;72.40;;;;;;4989972;28;20077;-71
2023/07/09 07:21:49;;;;;;;0.38;0.38;;;24.30;72.50;;;;;;4972597;28;20088;-71
2023/07/09 07:24:14;;;;;;;0.03;0.03;;;24.40;73.30;;;;;;5009053;28;20034;-72
2023/07/09 07:26:40;;;;;;;0.03;0.03;;;24.40;73.10;;;;;;5007267;28;20052;-73
2023/07/09 07:29:05;;;;;;;0.55;0.55;;;24.50;73.10;;;;;;5007975;28;20053;-72
2023/07/09 07:31:31;;;;;;;0.00;0.00;;;24.50;74.50;;;;;;5007563;28;20942;-71
2023/07/09 07:33:56;;;;;;;0.00;0.00;;;24.60;73.80;;;;;;5007673;28;20068;-72
2023/07/09 07:36:22;;;;;;;0.28;0.28;;;24.60;73.40;;;;;;5008143;28;21056;-72
2023/07/09 07:38:48;;;;;;;0.55;0.55;;;24.70;73.80;;;;;;4990493;28;20494;-73
2023/07/09 07:41:13;;;;;;;0.65;0.52;;;24.70;73.70;;;;;;5006763;28;20041;-72
2023/07/09 07:43:45;;;;;;;0.15;0.15;;;24.80;74.00;;;;;;5006844;28;20137;-71
2023/07/09 07:46:10;;;;;;;0.28;0.25;;;24.90;74.10;;;;;;4993377;28;20108;-68
2023/07/09 07:48:36;;;;;;;0.10;0.10;;;24.90;73.40;;;;;;5010751;28;20513;-68
2023/07/09 07:51:03;;;;;;;0.10;0.10;;;24.90;73.50;;;;;;5009906;28;20045;-68
2023/07/09 07:53:30;;;;;;;0.30;0.30;;;24.90;74.50;;;;;;5003792;28;20057;-68
2023/07/09 07:56:01;;;;;;;0.63;0.63;;;24.90;73.70;;;;;;4999094;28;20112;-68
2023/07/09 07:58:27;;;;;;;0.00;0.00;;;25.00;74.90;;;;;;5010075;28;20045;-68
2023/07/09 08:00:56;;;;;;;0.10;0.10;;;25.00;74.60;;;;;;5001870;28;20046;-70
2023/07/09 08:03:23;;;;;;;0.17;0.15;;;25.00;74.50;;;;;;4999125;28;20119;-70
2023/07/09 08:05:51;;;;;;;1.90;0.65;;;25.10;73.70;;;;;;5010136;28;20049;-67
2023/07/09 08:08:17;;;;;;;0.20;0.20;;;25.10;71.00;;;;;;5006616;28;20121;-67
2023/07/09 08:10:46;;;;;;;0.65;0.65;;;25.10;70.00;;;;;;5006137;28;20116;-67
2023/07/09 08:13:13;;;;;;;1.08;0.75;;;25.20;70.30;;;;;;5010463;28;20446;-66
2023/07/09 08:15:38;;;;;;;0.20;0.20;;;25.10;68.80;;;;;;5008218;28;20413;-69
2023/07/09 08:18:04;;;;;;;0.25;0.25;;;25.10;65.60;;;;;;5007402;28;20042;-69
2023/07/09 08:20:30;;;;;;;0.35;0.25;;;25.10;66.80;;;;;;5009305;28;20085;-69
2023/07/09 08:22:55;;;;;;;0.65;0.52;;;25.10;66.80;;;;;;5008432;28;20038;-73
2023/07/09 08:25:21;;;;;;;0.10;0.10;;;25.10;66.30;;;;;;5010613;28;20057;-73
2023/07/09 08:27:47;;;;;;;0.10;0.10;;;25.20;65.90;;;;;;4992991;28;20042;-73
2023/07/09 08:30:12;;;;;;;0.00;0.00;;;25.20;63.70;;;;;;5010369;28;20066;-72
2023/07/09 08:32:38;;;;;;;0.13;0.13;;;25.20;63.20;;;;;;5010294;28;20050;-72
2023/07/09 08:35:04;;;;;;;0.00;0.00;;;25.20;63.70;;;;;;4976245;28;20136;-72
2023/07/09 08:37:29;;;;;;;0.00;0.00;;;25.20;63.80;;;;;;5009558;28;20049;-73
2023/07/09 08:39:55;;;;;;;0.13;0.13;;;25.30;64.60;;;;;;4976893;28;20058;-72
2023/07/09 08:42:42;;;;;;;0.00;0.00;;;25.40;63.80;;;;;;4990937;28;20071;-73
2023/07/09 08:45:11;;;;;;;0.28;0.28;;;25.50;64.40;;;;;;4997742;28;20042;-72
2023/07/09 08:47:52;;;;;;;0.00;0.00;;;25.50;62.50;;;;;;5008985;28;20498;-72
2023/07/09 08:50:32;;;;;;;0.10;0.10;;;25.50;62.30;;;;;;4975974;28;20141;-71
2023/07/09 08:52:58;;;;;;;0.00;0.00;;;25.50;63.20;;;;;;5010187;28;20491;-74
2023/07/09 08:55:28;;;;;;;0.00;0.00;;;25.50;62.40;;;;;;4990356;28;20050;-72
2023/07/09 08:58:05;;;;;;;0.00;0.00;;;25.50;61.30;;;;;;4992230;28;20506;-70
2023/07/09 09:00:37;;;;;;;0.00;0.00;;;25.60;61.70;;;;;;5008633;28;20054;-73
2023/07/09 09:03:11;;;;;;;0.45;0.45;;;25.50;62.20;;;;;;4984546;28;20443;-73
2023/07/09 09:05:43;;;;;;;0.17;0.15;;;25.60;63.50;;;;;;4983205;28;20113;-73
2023/07/09 09:08:39;;;;;;;0.08;0.08;;;25.60;63.50;;;;;;4983682;28;20558;-73
2023/07/09 09:11:33;;;;;;;0.10;0.10;;;25.70;62.80;;;;;;5005764;28;20049;-73
2023/07/09 09:14:02;;;;;;;0.20;0.15;;;25.70;62.60;;;;;;5003445;28;20060;-73
2023/07/09 09:16:32;;;;;;;0.00;0.00;;;25.70;62.30;;;;;;5005134;28;20541;-75
2023/07/09 09:19:00;;;;;;;0.43;0.43;;;25.80;62.60;;;;;;5008216;28;20056;-74
2023/07/09 09:21:35;;;;;;;1.75;0.98;;;25.90;62.50;;;;;;4991267;28;20045;-74
2023/07/09 09:24:19;;;;;;;0.15;0.15;;;25.90;62.50;;;;;;4975418;28;20061;-73
2023/07/09 09:26:48;;;;;;;0.05;0.05;;;25.90;60.50;;;;;;4996237;28;20169;-73
2023/07/09 09:29:15;;;;;;;0.00;0.00;;;26.00;61.10;;;;;;5006439;28;20536;-73
2023/07/09 09:31:45;;;;;;;3.15;1.00;;;26.00;60.70;;;;;;5004774;28;20050;-72
2023/07/09 09:34:24;;;;;;;0.00;0.00;;;26.10;56.60;;;;;;4984811;28;20065;-73
2023/07/09 09:36:49;;;;;;;0.00;0.00;;;26.20;56.20;;;;;;5001321;28;20057;-72
2023/07/09 09:39:17;;;;;;;0.03;0.03;;;26.20;53.10;;;;;;5002134;28;20050;-72
2023/07/09 09:41:44;;;;;;;5.88;0.90;;;26.20;53.10;;;;;;4984461;28;20046;-73
2023/07/09 09:44:28;;;;;;;0.00;0.00;;;26.30;54.00;;;;;;4995666;28;20470;-73
2023/07/09 09:46:56;;;;;;;0.00;0.00;;;26.40;55.30;;;;;;5001772;28;20073;-73
2023/07/09 09:49:22;;;;;;;0.00;0.00;;;26.50;53.70;;;;;;4983031;28;20136;-73
2023/07/09 09:51:48;;;;;;;0.00;0.00;;;26.50;53.80;;;;;;5005108;28;20073;-73
2023/07/09 09:54:19;;;;;;;0.20;0.15;;;26.50;55.00;;;;;;5002646;28;20061;-74
2023/07/09 09:56:44;;;;;;;0.00;0.00;;;26.60;54.80;;;;;;5006168;28;20041;-74
2023/07/09 09:59:19;;;;;;;0.00;0.00;;;26.70;55.60;;;;;;4999097;28;20800;-74
2023/07/09 10:01:44;;;;;;;0.10;0.10;;;26.70;54.20;;;;;;5000788;28;20045;-73
2023/07/09 10:04:17;;;;;;;0.00;0.00;;;26.80;53.50;;;;;;5001194;28;20038;-72
2023/07/09 10:06:50;;;;;;;0.00;0.00;;;26.80;52.80;;;;;;5001848;28;20073;-72
2023/07/09 10:09:21;;;;;;;0.35;0.32;;;26.90;53.10;;;;;;5002650;28;20053;-75
2023/07/09 10:11:54;;;;;;;0.00;0.00;;;26.90;52.80;;;;;;5002983;28;20038;-73
2023/07/09 10:14:32;;;;;;;0.70;0.50;;;27.00;52.20;;;;;;5003586;28;20565;-74
2023/07/09 10:17:05;;;;;;;0.10;0.10;;;27.00;53.10;;;;;;5002351;28;20716;-75
2023/07/09 10:19:50;;;;;;;0.00;0.00;;;27.00;53.50;;;;;;4984357;28;20076;-74
2023/07/09 10:22:43;;;;;;;0.10;0.10;;;27.10;53.00;;;;;;5013272;28;20448;-74
2023/07/09 10:25:27;;;;;;;0.00;0.00;;;27.20;52.70;;;;;;5012621;28;20048;-74
2023/07/09 10:27:58;;;;;;;0.10;0.10;;;27.20;53.40;;;;;;4996564;28;20497;-74
2023/07/09 10:30:56;;;;;;;0.10;0.10;;;27.20;53.10;;;;;;4997482;28;20497;-75
2023/07/09 10:34:01;;;;;;;0.00;0.00;;;27.10;52.90;;;;;;5011527;28;20057;-75
2023/07/09 10:36:32;;;;;;;0.22;0.22;;;27.20;53.00;;;;;;5012420;28;20049;-75
2023/07/09 10:39:10;;;;;;;0.00;0.00;;;27.20;53.60;;;;;;5015733;28;20054;-76
2023/07/09 10:41:38;;;;;;;0.00;0.00;;;27.30;51.90;;;;;;4995831;28;20605;-74
2023/07/09 10:44:05;;;;;;;0.10;0.10;;;27.30;52.80;;;;;;5009660;28;20053;-74
2023/07/09 10:46:34;;;;;;;0.00;0.00;;;27.40;53.10;;;;;;5008979;28;20046;-74
2023/07/09 10:49:02;;;;;;;0.00;0.00;;;27.40;53.10;;;;;;5001941;28;20137;-74
2023/07/09 10:51:52;;;;;;;0.30;0.30;;;27.40;51.20;;;;;;4979520;28;20112;-74
2023/07/09 10:54:37;;;;;;;0.10;0.10;;;27.50;53.70;;;;;;5006610;28;20470;-75
2023/07/09 10:57:11;;;;;;;0.00;0.00;;;27.50;53.00;;;;;;4991216;28;20046;-74
2023/07/09 10:59:40;;;;;;;0.00;0.00;;;27.60;53.60;;;;;;4973822;28;20235;-75
2023/07/09 11:02:25;;;;;;;0.00;0.00;;;27.60;52.90;;;;;;4988860;28;20038;-74
2023/07/09 11:05:00;;;;;;;0.15;0.15;;;27.80;52.80;;;;;;4990100;28;20065;-73
2023/07/09 11:07:38;;;;;;;0.00;0.00;;;27.80;50.50;;;;;;4990908;28;20469;-73
2023/07/09 11:10:14;;;;;;;0.00;0.00;;;27.80;44.10;;;;;;4973507;28;20065;-74
2023/07/09 11:12:55;;;;;;;0.00;0.00;;;27.80;45.90;;;;;;4990384;28;20042;-74
2023/07/09 11:15:29;;;;;;;0.00;0.00;;;27.80;46.40;;;;;;4987753;28;20045;-73
2023/07/09 11:17:58;;;;;;;0.00;0.00;;;27.90;47.00;;;;;;5007942;28;20128;-73
2023/07/09 11:20:36;;;;;;;0.00;0.00;;;27.90;45.70;;;;;;4994271;28;20072;-74
2023/07/09 11:23:16;;;;;;;1.20;0.82;;;28.00;47.50;;;;;;4992942;28;20048;-71
2023/07/09 11:25:48;;;;;;;0.00;0.00;;;28.00;46.20;;;;;;5008283;28;20077;-71
2023/07/09 11:28:13;;;;;;;0.00;0.00;;;28.10;47.30;;;;;;4993814;28;20228;-72
2023/07/09 11:30:53;;;;;;;0.00;0.00;;;28.10;47.90;;;;;;4992660;28;20160;-72
2023/07/09 11:33:27;;;;;;;0.10;0.10;;;28.20;48.80;;;;;;5011973;28;20045;-72
2023/07/09 11:36:23;;;;;;;0.08;0.08;;;28.30;49.90;;;;;;4994847;28;20494;-71
2023/07/09 11:38:48;;;;;;;0.00;0.00;;;28.40;49.80;;;;;;4994992;28;20046;-71
2023/07/09 11:41:28;;;;;;;0.00;0.00;;;28.50;47.40;;;;;;5011747;28;20475;-71
2023/07/09 11:44:08;;;;;;;0.00;0.00;;;28.50;48.60;;;;;;5012454;28;20052;-71
2023/07/09 11:46:36;;;;;;;0.00;0.00;;;28.60;48.20;;;;;;4994578;28;20056;-71
2023/07/09 11:49:02;;;;;;;0.20;0.20;;;28.60;48.50;;;;;;5011923;28;20442;-71
2023/07/09 11:51:41;;;;;;;2.28;1.52;;;28.60;48.00;;;;;;5011502;28;20110;-71
2023/07/09 11:54:13;;;;;;;1.65;0.63;;;28.70;46.60;;;;;;5010141;28;20082;-71
2023/07/09 11:56:39;;;;;;;0.00;0.00;;;28.80;44.90;;;;;;5016150;28;20548;-71
2023/07/09 11:59:04;;;;;;;0.32;0.32;;;28.80;44.20;;;;;;5019854;28;20042;-71
2023/07/09 12:01:39;;;;;;;0.00;0.00;;;28.80;45.10;;;;;;5010946;28;20061;-71
2023/07/09 12:04:05;;;;;;;0.00;0.00;;;28.80;45.60;;;;;;5020792;28;20078;-71
2023/07/09 12:06:33;;;;;;;0.35;0.35;;;28.80;46.30;;;;;;5011866;28;20651;-71
2023/07/09 12:08:59;;;;;;;0.08;0.08;;;28.90;46.60;;;;;;4993998;28;20049;-71
2023/07/09 12:11:30;;;;;;;0.10;0.10;;;29.00;47.60;;;;;;5011543;28;20457;-71
2023/07/09 12:14:17;;;;;;;0.20;0.20;;;29.00;47.80;;;;;;5011587;28;20071;-71
2023/07/09 12:16:46;;;;;;;0.00;0.00;;;29.10;48.50;;;;;;5011639;28;20678;-71
2023/07/09 12:19:13;;;;;;;0.17;0.13;;;29.10;48.90;;;;;;5011538;28;20038;-71
2023/07/09 12:21:42;;;;;;;0.08;0.08;;;29.10;49.20;;;;;;5011519;28;20046;-71
2023/07/09 12:24:26;;;;;;;0.00;0.00;;;29.00;49.10;;;;;;5011154;28;20034;-71
2023/07/09 12:26:58;;;;;;;0.00;0.00;;;29.00;48.90;;;;;;5006295;28;20039;-71
2023/07/09 12:29:35;;;;;;;0.20;0.20;;;28.90;48.80;;;;;;5009670;28;20053;-70
2023/07/09 12:32:11;;;;;;;0.00;0.00;;;28.80;48.50;;;;;;4989738;28;20050;-70
2023/07/09 12:34:36;;;;;;;1.55;0.63;;;28.80;49.10;;;;;;5005946;28;20474;-71
2023/07/09 12:37:03;;;;;;;0.00;0.00;;;28.80;48.70;;;;;;5000021;28;20042;-71
2023/07/09 12:39:31;;;;;;;0.03;0.03;;;28.90;48.20;;;;;;5009375;28;20145;-71
2023/07/09 12:42:00;;;;;;;0.00;0.00;;;29.00;48.60;;;;;;5009822;28;20446;-71
2023/07/09 12:44:30;;;;;;;0.15;0.15;;;29.20;48.30;;;;;;4980916;28;20088;-71
2023/07/09 12:46:55;;;;;;;0.00;0.00;;;29.30;46.60;;;;;;4993332;28;20576;-71
2023/07/09 12:49:27;;;;;;;0.15;0.15;;;29.20;46.40;;;;;;5010058;28;20046;-71
2023/07/09 12:51:57;;;;;;;0.05;0.05;;;29.20;46.80;;;;;;5001433;28;20065;-71
2023/07/09 12:54:23;;;;;;;0.08;0.08;;;29.20;45.70;;;;;;5006372;28;20050;-71
2023/07/09 12:56:53;;;;;;;0.05;0.05;;;29.20;46.00;;;;;;5004981;28;20042;-71